sensor_id;sensor_type;location;lat;lon;timestamp;pressure;altitude;pressure_sealevel;temperature
48628;BMP280;34424;52.234;6.500;2023-03-31T00:00:53;61966.28;;;8.98
48628;BMP280;34424;52.234;6.500;2023-03-31T00:05:59;61981.06;;;8.84
48628;BMP280;34424;52.234;6.500;2023-03-31T00:11:05;61980.13;;;8.88
48628;BMP280;34424;52.234;6.500;2023-03-31T00:16:09;61974.81;;;8.83
48628;BMP280;34424;52.234;6.500;2023-03-31T00:21:13;61951.56;;;8.69
48628;BMP280;34424;52.234;6.500;2023-03-31T00:26:27;61941.59;;;8.64
48628;BMP280;34424;52.234;6.500;2023-03-31T00:31:30;61969.22;;;8.68
48628;BMP280;34424;52.234;6.500;2023-03-31T00:36:32;61961.91;;;8.66
48628;BMP280;34424;52.234;6.500;2023-03-31T00:41:38;61964.88;;;8.59
48628;BMP280;34424;52.234;6.500;2023-03-31T00:46:46;61939.84;;;8.55
48628;BMP280;34424;52.234;6.500;2023-03-31T00:51:54;61942.50;;;8.57
48628;BMP280;34424;52.234;6.500;2023-03-31T00:56:58;61953.13;;;8.68
48628;BMP280;34424;52.234;6.500;2023-03-31T01:02:04;61961.09;;;8.75
48628;BMP280;34424;52.234;6.500;2023-03-31T01:07:10;61985.06;;;8.78
48628;BMP280;34424;52.234;6.500;2023-03-31T01:12:19;61972.69;;;8.81
48628;BMP280;34424;52.234;6.500;2023-03-31T01:17:23;62002.56;;;8.92
48628;BMP280;34424;52.234;6.500;2023-03-31T01:22:45;61989.34;;;9.05
48628;BMP280;34424;52.234;6.500;2023-03-31T01:28:08;62014.50;;;9.14
48628;BMP280;34424;52.234;6.500;2023-03-31T01:33:33;62008.59;;;9.28
48628;BMP280;34424;52.234;6.500;2023-03-31T01:38:59;62027.50;;;9.36
48628;BMP280;34424;52.234;6.500;2023-03-31T01:44:14;62033.28;;;9.39
48628;BMP280;34424;52.234;6.500;2023-03-31T01:49:23;62011.66;;;9.48
48628;BMP280;34424;52.234;6.500;2023-03-31T01:54:34;62039.09;;;9.42
48628;BMP280;34424;52.234;6.500;2023-03-31T01:59:48;62061.78;;;9.34
48628;BMP280;34424;52.234;6.500;2023-03-31T02:04:57;62036.69;;;9.28
48628;BMP280;34424;52.234;6.500;2023-03-31T02:10:04;62015.19;;;9.22
48628;BMP280;34424;52.234;6.500;2023-03-31T02:15:13;62001.50;;;9.14
48628;BMP280;34424;52.234;6.500;2023-03-31T02:20:20;61993.00;;;9.06
48628;BMP280;34424;52.234;6.500;2023-03-31T02:25:27;61995.00;;;9.03
48628;BMP280;34424;52.234;6.500;2023-03-31T02:30:37;61966.88;;;9.01
48628;BMP280;34424;52.234;6.500;2023-03-31T02:35:44;61981.41;;;9.00
48628;BMP280;34424;52.234;6.500;2023-03-31T02:40:47;61970.88;;;8.95
48628;BMP280;34424;52.234;6.500;2023-03-31T02:45:51;61935.56;;;8.96
48628;BMP280;34424;52.234;6.500;2023-03-31T02:51:13;61963.56;;;8.92
48628;BMP280;34424;52.234;6.500;2023-03-31T02:56:27;61962.50;;;8.91
48628;BMP280;34424;52.234;6.500;2023-03-31T03:01:57;61959.38;;;8.91
48628;BMP280;34424;52.234;6.500;2023-03-31T03:07:05;61979.59;;;8.88
48628;BMP280;34424;52.234;6.500;2023-03-31T03:12:15;61972.78;;;8.86
48628;BMP280;34424;52.234;6.500;2023-03-31T03:17:23;61979.63;;;8.90
48628;BMP280;34424;52.234;6.500;2023-03-31T03:22:28;61972.47;;;8.96
48628;BMP280;34424;52.234;6.500;2023-03-31T03:27:30;61975.28;;;9.04
48628;BMP280;34424;52.234;6.500;2023-03-31T03:32:34;62016.47;;;9.08
48628;BMP280;34424;52.234;6.500;2023-03-31T03:37:37;61984.72;;;9.08
48628;BMP280;34424;52.234;6.500;2023-03-31T03:42:40;61985.25;;;9.08
48628;BMP280;34424;52.234;6.500;2023-03-31T03:47:44;61988.97;;;9.12
48628;BMP280;34424;52.234;6.500;2023-03-31T03:52:47;61988.06;;;9.18
48628;BMP280;34424;52.234;6.500;2023-03-31T03:57:50;61994.88;;;9.20
48628;BMP280;34424;52.234;6.500;2023-03-31T04:02:54;62020.41;;;9.22
48628;BMP280;34424;52.234;6.500;2023-03-31T04:07:57;61995.34;;;9.18
48628;BMP280;34424;52.234;6.500;2023-03-31T04:13:00;62001.66;;;9.21
48628;BMP280;34424;52.234;6.500;2023-03-31T04:18:04;61997.53;;;9.22
48628;BMP280;34424;52.234;6.500;2023-03-31T04:23:07;61974.53;;;9.18
48628;BMP280;34424;52.234;6.500;2023-03-31T04:28:10;61993.75;;;9.16
48628;BMP280;34424;52.234;6.500;2023-03-31T04:33:16;61986.44;;;9.14
48628;BMP280;34424;52.234;6.500;2023-03-31T04:38:20;62006.66;;;9.11
48628;BMP280;34424;52.234;6.500;2023-03-31T04:43:24;61984.25;;;9.10
48628;BMP280;34424;52.234;6.500;2023-03-31T04:48:28;61994.06;;;9.07
48628;BMP280;34424;52.234;6.500;2023-03-31T04:53:31;61972.72;;;9.06
48628;BMP280;34424;52.234;6.500;2023-03-31T04:58:34;61966.41;;;9.03
48628;BMP280;34424;52.234;6.500;2023-03-31T05:03:38;61970.94;;;8.97
48628;BMP280;34424;52.234;6.500;2023-03-31T05:08:42;61926.75;;;8.97
48628;BMP280;34424;52.234;6.500;2023-03-31T05:13:45;61997.94;;;8.96
48628;BMP280;34424;52.234;6.500;2023-03-31T05:18:49;61962.63;;;8.97
48628;BMP280;34424;52.234;6.500;2023-03-31T05:23:52;61975.63;;;8.97
48628;BMP280;34424;52.234;6.500;2023-03-31T05:28:56;61979.28;;;8.98
48628;BMP280;34424;52.234;6.500;2023-03-31T05:33:59;62000.06;;;8.98
48628;BMP280;34424;52.234;6.500;2023-03-31T05:39:02;61959.53;;;8.99
48628;BMP280;34424;52.234;6.500;2023-03-31T05:44:05;61960.63;;;9.00
48628;BMP280;34424;52.234;6.500;2023-03-31T05:49:09;62007.41;;;9.00
48628;BMP280;34424;52.234;6.500;2023-03-31T05:54:12;61946.16;;;9.03
48628;BMP280;34424;52.234;6.500;2023-03-31T05:59:15;61995.66;;;9.08
48628;BMP280;34424;52.234;6.500;2023-03-31T06:04:19;61983.66;;;9.07
48628;BMP280;34424;52.234;6.500;2023-03-31T06:09:22;62022.31;;;9.14
48628;BMP280;34424;52.234;6.500;2023-03-31T06:14:25;61982.88;;;9.18
48628;BMP280;34424;52.234;6.500;2023-03-31T06:19:29;61977.72;;;9.21
48628;BMP280;34424;52.234;6.500;2023-03-31T06:24:32;62000.69;;;9.23
48628;BMP280;34424;52.234;6.500;2023-03-31T06:29:36;62040.34;;;9.29
48628;BMP280;34424;52.234;6.500;2023-03-31T06:34:40;62015.97;;;9.33
48628;BMP280;34424;52.234;6.500;2023-03-31T06:39:42;62034.34;;;9.40
48628;BMP280;34424;52.234;6.500;2023-03-31T06:44:45;62047.47;;;9.45
48628;BMP280;34424;52.234;6.500;2023-03-31T06:49:49;62048.84;;;9.59
48628;BMP280;34424;52.234;6.500;2023-03-31T06:54:52;62079.91;;;9.74
48628;BMP280;34424;52.234;6.500;2023-03-31T06:59:54;62089.59;;;9.88
48628;BMP280;34424;52.234;6.500;2023-03-31T07:04:58;62057.28;;;9.87
48628;BMP280;34424;52.234;6.500;2023-03-31T07:10:01;62104.16;;;9.87
48628;BMP280;34424;52.234;6.500;2023-03-31T07:15:05;62092.03;;;9.80
48628;BMP280;34424;52.234;6.500;2023-03-31T07:20:11;62055.53;;;9.78
48628;BMP280;34424;52.234;6.500;2023-03-31T07:25:16;62099.34;;;10.05
48628;BMP280;34424;52.234;6.500;2023-03-31T07:30:19;62150.28;;;10.21
48628;BMP280;34424;52.234;6.500;2023-03-31T07:35:25;62181.69;;;10.51
48628;BMP280;34424;52.234;6.500;2023-03-31T07:40:31;62182.63;;;10.69
48628;BMP280;34424;52.234;6.500;2023-03-31T07:45:34;62207.88;;;10.79
48628;BMP280;34424;52.234;6.500;2023-03-31T07:50:38;62194.94;;;10.84
48628;BMP280;34424;52.234;6.500;2023-03-31T07:55:41;62198.59;;;10.85
48628;BMP280;34424;52.234;6.500;2023-03-31T08:00:44;62194.19;;;10.73
48628;BMP280;34424;52.234;6.500;2023-03-31T08:05:50;62209.78;;;10.70
48628;BMP280;34424;52.234;6.500;2023-03-31T08:10:52;62160.47;;;10.58
48628;BMP280;34424;52.234;6.500;2023-03-31T08:15:56;62198.41;;;10.52
48628;BMP280;34424;52.234;6.500;2023-03-31T08:21:00;62171.06;;;10.41
48628;BMP280;34424;52.234;6.500;2023-03-31T08:26:10;62174.19;;;10.41
48628;BMP280;34424;52.234;6.500;2023-03-31T08:31:19;62158.38;;;10.34
48628;BMP280;34424;52.234;6.500;2023-03-31T08:36:29;62138.16;;;10.17
48628;BMP280;34424;52.234;6.500;2023-03-31T08:41:38;62148.41;;;10.09
48628;BMP280;34424;52.234;6.500;2023-03-31T08:46:43;62081.78;;;9.88
48628;BMP280;34424;52.234;6.500;2023-03-31T08:51:49;62107.16;;;9.82
48628;BMP280;34424;52.234;6.500;2023-03-31T08:56:53;62091.50;;;9.80
48628;BMP280;34424;52.234;6.500;2023-03-31T09:02:01;62090.53;;;9.84
48628;BMP280;34424;52.234;6.500;2023-03-31T09:07:13;62112.91;;;10.05
48628;BMP280;34424;52.234;6.500;2023-03-31T09:12:20;62139.78;;;9.96
48628;BMP280;34424;52.234;6.500;2023-03-31T09:17:26;62134.56;;;9.96
48628;BMP280;34424;52.234;6.500;2023-03-31T09:22:34;62106.41;;;9.94
48628;BMP280;34424;52.234;6.500;2023-03-31T09:27:43;62104.03;;;9.82
48628;BMP280;34424;52.234;6.500;2023-03-31T09:32:52;62085.09;;;9.74
48628;BMP280;34424;52.234;6.500;2023-03-31T09:37:58;62115.88;;;9.76
48628;BMP280;34424;52.234;6.500;2023-03-31T09:43:03;62082.97;;;9.72
48628;BMP280;34424;52.234;6.500;2023-03-31T09:48:11;62089.84;;;9.76
48628;BMP280;34424;52.234;6.500;2023-03-31T09:53:18;62105.44;;;9.98
48628;BMP280;34424;52.234;6.500;2023-03-31T09:58:23;62166.13;;;10.31
48628;BMP280;34424;52.234;6.500;2023-03-31T10:03:26;62174.28;;;10.69
48628;BMP280;34424;52.234;6.500;2023-03-31T10:08:31;62308.72;;;11.55
48628;BMP280;34424;52.234;6.500;2023-03-31T10:13:40;62392.28;;;12.47
48628;BMP280;34424;52.234;6.500;2023-03-31T10:18:45;62476.25;;;13.32
48628;BMP280;34424;52.234;6.500;2023-03-31T10:23:49;62496.13;;;13.31
48628;BMP280;34424;52.234;6.500;2023-03-31T10:28:52;62481.66;;;13.17
48628;BMP280;34424;52.234;6.500;2023-03-31T10:33:56;62421.38;;;12.87
48628;BMP280;34424;52.234;6.500;2023-03-31T10:39:05;62378.63;;;12.69
48628;BMP280;34424;52.234;6.500;2023-03-31T10:44:31;62444.88;;;13.09
48628;BMP280;34424;52.234;6.500;2023-03-31T10:49:38;62455.69;;;13.49
48628;BMP280;34424;52.234;6.500;2023-03-31T10:54:47;62450.22;;;12.89
48628;BMP280;34424;52.234;6.500;2023-03-31T10:59:58;62391.00;;;12.60
48628;BMP280;34424;52.234;6.500;2023-03-31T11:05:11;62339.88;;;12.17
48628;BMP280;34424;52.234;6.500;2023-03-31T11:10:34;62381.06;;;12.36
48628;BMP280;34424;52.234;6.500;2023-03-31T11:15:41;62396.66;;;12.56
48628;BMP280;34424;52.234;6.500;2023-03-31T11:20:54;62355.91;;;12.32
48628;BMP280;34424;52.234;6.500;2023-03-31T11:26:03;62401.38;;;12.80
48628;BMP280;34424;52.234;6.500;2023-03-31T11:31:19;62532.72;;;14.03
48628;BMP280;34424;52.234;6.500;2023-03-31T11:36:40;62680.53;;;14.73
48628;BMP280;34424;52.234;6.500;2023-03-31T11:41:49;62543.22;;;14.30
48628;BMP280;34424;52.234;6.500;2023-03-31T11:46:54;62591.06;;;14.36
48628;BMP280;34424;52.234;6.500;2023-03-31T11:52:02;62518.56;;;14.02
48628;BMP280;34424;52.234;6.500;2023-03-31T11:57:18;62604.66;;;13.84
48628;BMP280;34424;52.234;6.500;2023-03-31T12:02:26;62648.50;;;13.31
48628;BMP280;34424;52.234;6.500;2023-03-31T12:07:35;62610.69;;;13.25
48628;BMP280;34424;52.234;6.500;2023-03-31T12:12:44;62610.31;;;13.79
48628;BMP280;34424;52.234;6.500;2023-03-31T12:17:56;62482.97;;;13.53
48628;BMP280;34424;52.234;6.500;2023-03-31T12:23:04;62482.94;;;13.50
48628;BMP280;34424;52.234;6.500;2023-03-31T12:34:38;62539.75;;;14.14
48628;BMP280;34424;52.234;6.500;2023-03-31T12:39:51;62526.59;;;14.12
48628;BMP280;34424;52.234;6.500;2023-03-31T12:45:00;62520.97;;;14.19
48628;BMP280;34424;52.234;6.500;2023-03-31T12:50:25;62480.91;;;13.81
48628;BMP280;34424;52.234;6.500;2023-03-31T12:55:35;62447.88;;;13.79
48628;BMP280;34424;52.234;6.500;2023-03-31T13:01:01;62523.13;;;14.21
48628;BMP280;34424;52.234;6.500;2023-03-31T13:06:10;62516.50;;;14.05
48628;BMP280;34424;52.234;6.500;2023-03-31T13:11:13;62554.03;;;14.46
48628;BMP280;34424;52.234;6.500;2023-03-31T13:16:18;62499.81;;;14.09
48628;BMP280;34424;52.234;6.500;2023-03-31T13:21:23;62471.06;;;13.87
48628;BMP280;34424;52.234;6.500;2023-03-31T13:26:41;62467.56;;;13.68
48628;BMP280;34424;52.234;6.500;2023-03-31T13:32:14;62421.19;;;13.54
48628;BMP280;34424;52.234;6.500;2023-03-31T13:37:29;62475.72;;;13.56
48628;BMP280;34424;52.234;6.500;2023-03-31T13:43:03;62520.75;;;13.81
48628;BMP280;34424;52.234;6.500;2023-03-31T13:48:19;62497.19;;;13.81
48628;BMP280;34424;52.234;6.500;2023-03-31T13:53:40;62476.22;;;13.81
48628;BMP280;34424;52.234;6.500;2023-03-31T13:59:24;62469.66;;;13.68
48628;BMP280;34424;52.234;6.500;2023-03-31T14:04:52;62426.38;;;13.51
48628;BMP280;34424;52.234;6.500;2023-03-31T14:10:01;62473.34;;;13.69
48628;BMP280;34424;52.234;6.500;2023-03-31T14:15:06;62466.00;;;13.69
48628;BMP280;34424;52.234;6.500;2023-03-31T14:20:25;62477.72;;;13.78
48628;BMP280;34424;52.234;6.500;2023-03-31T14:25:39;62522.91;;;14.11
48628;BMP280;34424;52.234;6.500;2023-03-31T14:30:50;62422.78;;;13.03
48628;BMP280;34424;52.234;6.500;2023-03-31T14:35:56;62372.69;;;12.60
48628;BMP280;34424;52.234;6.500;2023-03-31T14:41:04;62381.72;;;12.67
48628;BMP280;34424;52.234;6.500;2023-03-31T14:46:08;62363.09;;;12.51
48628;BMP280;34424;52.234;6.500;2023-03-31T14:51:13;62322.31;;;12.52
48628;BMP280;34424;52.234;6.500;2023-03-31T14:56:21;62312.78;;;12.21
48628;BMP280;34424;52.234;6.500;2023-03-31T15:01:28;62253.91;;;11.55
48628;BMP280;34424;52.234;6.500;2023-03-31T15:06:36;62206.59;;;11.15
48628;BMP280;34424;52.234;6.500;2023-03-31T15:11:41;62231.19;;;11.18
48628;BMP280;34424;52.234;6.500;2023-03-31T15:16:44;62281.50;;;11.76
48628;BMP280;34424;52.234;6.500;2023-03-31T15:21:53;62307.47;;;12.16
48628;BMP280;34424;52.234;6.500;2023-03-31T15:27:00;62323.13;;;12.16
48628;BMP280;34424;52.234;6.500;2023-03-31T15:32:07;62336.94;;;12.26
48628;BMP280;34424;52.234;6.500;2023-03-31T15:37:14;62325.69;;;12.13
48628;BMP280;34424;52.234;6.500;2023-03-31T15:42:18;62337.16;;;12.37
48628;BMP280;34424;52.234;6.500;2023-03-31T15:47:21;62356.34;;;12.30
48628;BMP280;34424;52.234;6.500;2023-03-31T15:52:28;62253.16;;;11.69
48628;BMP280;34424;52.234;6.500;2023-03-31T15:57:34;62241.44;;;11.11
48628;BMP280;34424;52.234;6.500;2023-03-31T16:02:39;62166.16;;;10.56
48628;BMP280;34424;52.234;6.500;2023-03-31T16:07:43;62168.19;;;10.53
48628;BMP280;34424;52.234;6.500;2023-03-31T16:12:51;62184.59;;;10.64
48628;BMP280;34424;52.234;6.500;2023-03-31T16:17:57;62227.25;;;10.82
48628;BMP280;34424;52.234;6.500;2023-03-31T16:23:01;62222.25;;;11.15
48628;BMP280;34424;52.234;6.500;2023-03-31T16:28:16;62219.22;;;11.19
48628;BMP280;34424;52.234;6.500;2023-03-31T16:33:20;62203.38;;;11.12
48628;BMP280;34424;52.234;6.500;2023-03-31T16:38:27;62195.88;;;11.02
48628;BMP280;34424;52.234;6.500;2023-03-31T16:43:32;62173.13;;;10.88
48628;BMP280;34424;52.234;6.500;2023-03-31T16:48:35;62158.31;;;10.79
48628;BMP280;34424;52.234;6.500;2023-03-31T16:53:38;62175.81;;;10.68
48628;BMP280;34424;52.234;6.500;2023-03-31T16:58:48;62157.44;;;10.63
48628;BMP280;34424;52.234;6.500;2023-03-31T17:03:51;62210.47;;;10.56
48628;BMP280;34424;52.234;6.500;2023-03-31T17:08:53;62133.13;;;10.47
48628;BMP280;34424;52.234;6.500;2023-03-31T17:13:57;62149.25;;;10.45
48628;BMP280;34424;52.234;6.500;2023-03-31T17:19:00;62130.34;;;10.39
48628;BMP280;34424;52.234;6.500;2023-03-31T17:24:07;62165.59;;;10.31
48628;BMP280;34424;52.234;6.500;2023-03-31T17:29:11;62129.97;;;10.22
48628;BMP280;34424;52.234;6.500;2023-03-31T17:34:16;62100.16;;;10.18
48628;BMP280;34424;52.234;6.500;2023-03-31T17:39:19;62132.13;;;10.04
48628;BMP280;34424;52.234;6.500;2023-03-31T17:44:23;62096.00;;;9.94
48628;BMP280;34424;52.234;6.500;2023-03-31T17:49:26;62120.41;;;9.93
48628;BMP280;34424;52.234;6.500;2023-03-31T17:54:30;62067.63;;;9.84
48628;BMP280;34424;52.234;6.500;2023-03-31T17:59:35;62090.31;;;9.74
48628;BMP280;34424;52.234;6.500;2023-03-31T18:04:39;62069.25;;;9.64
48628;BMP280;34424;52.234;6.500;2023-03-31T18:09:42;62062.22;;;9.52
48628;BMP280;34424;52.234;6.500;2023-03-31T18:14:47;62059.31;;;9.39
48628;BMP280;34424;52.234;6.500;2023-03-31T18:19:49;62034.13;;;9.30
48628;BMP280;34424;52.234;6.500;2023-03-31T18:25:01;62033.13;;;9.32
48628;BMP280;34424;52.234;6.500;2023-03-31T18:30:06;62053.34;;;9.29
48628;BMP280;34424;52.234;6.500;2023-03-31T18:35:10;62040.41;;;9.31
48628;BMP280;34424;52.234;6.500;2023-03-31T18:40:12;62032.97;;;9.24
48628;BMP280;34424;52.234;6.500;2023-03-31T18:45:18;62000.13;;;9.22
48628;BMP280;34424;52.234;6.500;2023-03-31T18:50:20;62025.53;;;9.19
48628;BMP280;34424;52.234;6.500;2023-03-31T18:55:25;62029.09;;;9.15
48628;BMP280;34424;52.234;6.500;2023-03-31T19:00:34;62033.19;;;9.12
48628;BMP280;34424;52.234;6.500;2023-03-31T19:05:37;62039.91;;;9.11
48628;BMP280;34424;52.234;6.500;2023-03-31T19:10:40;61983.19;;;9.09
48628;BMP280;34424;52.234;6.500;2023-03-31T19:15:44;62002.34;;;9.05
48628;BMP280;34424;52.234;6.500;2023-03-31T19:20:49;61999.78;;;9.07
48628;BMP280;34424;52.234;6.500;2023-03-31T19:25:52;61998.19;;;9.06
48628;BMP280;34424;52.234;6.500;2023-03-31T19:30:56;62007.59;;;9.07
48628;BMP280;34424;52.234;6.500;2023-03-31T19:35:59;61990.41;;;9.06
48628;BMP280;34424;52.234;6.500;2023-03-31T19:41:03;61968.53;;;9.05
48628;BMP280;34424;52.234;6.500;2023-03-31T19:46:07;62002.88;;;9.05
48628;BMP280;34424;52.234;6.500;2023-03-31T19:51:10;62000.25;;;9.05
48628;BMP280;34424;52.234;6.500;2023-03-31T19:56:14;61992.94;;;9.03
48628;BMP280;34424;52.234;6.500;2023-03-31T20:01:21;62001.28;;;9.04
48628;BMP280;34424;52.234;6.500;2023-03-31T20:06:26;61984.63;;;9.03
48628;BMP280;34424;52.234;6.500;2023-03-31T20:11:29;61988.75;;;9.02
48628;BMP280;34424;52.234;6.500;2023-03-31T20:16:36;62029.28;;;9.01
48628;BMP280;34424;52.234;6.500;2023-03-31T20:21:38;61973.69;;;9.02
48628;BMP280;34424;52.234;6.500;2023-03-31T20:26:43;61995.00;;;9.03
48628;BMP280;34424;52.234;6.500;2023-03-31T20:31:47;62016.88;;;9.04
48628;BMP280;34424;52.234;6.500;2023-03-31T20:36:50;62006.47;;;9.04
48628;BMP280;34424;52.234;6.500;2023-03-31T20:41:53;62027.75;;;9.02
48628;BMP280;34424;52.234;6.500;2023-03-31T20:46:57;62010.56;;;9.00
48628;BMP280;34424;52.234;6.500;2023-03-31T20:52:00;61978.88;;;9.02
48628;BMP280;34424;52.234;6.500;2023-03-31T20:57:04;62010.59;;;9.03
48628;BMP280;34424;52.234;6.500;2023-03-31T21:02:10;61974.22;;;9.03
48628;BMP280;34424;52.234;6.500;2023-03-31T21:07:14;62003.88;;;9.04
48628;BMP280;34424;52.234;6.500;2023-03-31T21:12:17;61991.81;;;9.00
48628;BMP280;34424;52.234;6.500;2023-03-31T21:17:21;61979.81;;;8.98
48628;BMP280;34424;52.234;6.500;2023-03-31T21:22:24;61998.47;;;8.96
48628;BMP280;34424;52.234;6.500;2023-03-31T21:27:27;61991.81;;;9.00
48628;BMP280;34424;52.234;6.500;2023-03-31T21:32:33;61995.94;;;8.99
48628;BMP280;34424;52.234;6.500;2023-03-31T21:37:36;61977.75;;;8.99
48628;BMP280;34424;52.234;6.500;2023-03-31T21:42:39;61968.81;;;8.95
48628;BMP280;34424;52.234;6.500;2023-03-31T21:47:44;62003.69;;;8.96
48628;BMP280;34424;52.234;6.500;2023-03-31T21:52:46;61963.56;;;8.92
48628;BMP280;34424;52.234;6.500;2023-03-31T21:57:49;62010.34;;;8.92
48628;BMP280;34424;52.234;6.500;2023-03-31T22:02:54;61986.50;;;8.95
48628;BMP280;34424;52.234;6.500;2023-03-31T22:08:17;61999.44;;;8.92
48628;BMP280;34424;52.234;6.500;2023-03-31T22:13:20;61996.25;;;8.89
48628;BMP280;34424;52.234;6.500;2023-03-31T22:18:24;61999.38;;;8.89
48628;BMP280;34424;52.234;6.500;2023-03-31T22:23:27;61991.03;;;8.89
48628;BMP280;34424;52.234;6.500;2023-03-31T22:28:30;62000.84;;;8.86
48628;BMP280;34424;52.234;6.500;2023-03-31T22:33:33;61986.31;;;8.87
48628;BMP280;34424;52.234;6.500;2023-03-31T22:38:36;62004.56;;;8.89
48628;BMP280;34424;52.234;6.500;2023-03-31T22:43:39;61975.97;;;8.89
48628;BMP280;34424;52.234;6.500;2023-03-31T22:48:48;62000.44;;;8.90
48628;BMP280;34424;52.234;6.500;2023-03-31T22:53:52;62010.78;;;8.88
48628;BMP280;34424;52.234;6.500;2023-03-31T22:58:55;61995.72;;;8.88
48628;BMP280;34424;52.234;6.500;2023-03-31T23:03:59;62014.91;;;8.87
48628;BMP280;34424;52.234;6.500;2023-03-31T23:09:02;61980.13;;;8.88
48628;BMP280;34424;52.234;6.500;2023-03-31T23:14:05;61979.06;;;8.87
48628;BMP280;34424;52.234;6.500;2023-03-31T23:19:09;61994.66;;;8.87
48628;BMP280;34424;52.234;6.500;2023-03-31T23:24:12;61988.91;;;8.87
48628;BMP280;34424;52.234;6.500;2023-03-31T23:29:14;62007.16;;;8.89
48628;BMP280;34424;52.234;6.500;2023-03-31T23:34:18;62000.97;;;8.91
48628;BMP280;34424;52.234;6.500;2023-03-31T23:39:21;61999.84;;;8.87
48628;BMP280;34424;52.234;6.500;2023-03-31T23:44:24;62005.47;;;8.83
48628;BMP280;34424;52.234;6.500;2023-03-31T23:49:29;62017.91;;;8.82
48628;BMP280;34424;52.234;6.500;2023-03-31T23:54:32;61989.22;;;8.77
48628;BMP280;34424;52.234;6.500;2023-03-31T23:59:35;61993.94;;;8.79
